createdAt,value
2022-08-26T00:10:00.397Z,23.47
2022-08-26T00:20:04.753Z,23.29
2022-08-26T00:30:10.253Z,23.09
2022-08-26T00:40:17.196Z,23.01
2022-08-26T00:50:25.274Z,22.88
2022-08-26T01:00:30.814Z,22.82
2022-08-26T01:10:33.685Z,22.67
2022-08-26T01:20:40.457Z,22.55
2022-08-26T01:30:45.304Z,22.35
2022-08-26T01:40:47.923Z,22.29
2022-08-26T01:50:53.991Z,22.25
2022-08-26T02:00:57.111Z,22.14
2022-08-26T02:11:00.256Z,22.09
2022-08-26T02:21:02.825Z,22.16
2022-08-26T02:31:12.102Z,21.90
2022-08-26T02:41:14.473Z,21.97
2022-08-26T02:51:17.204Z,21.90
2022-08-26T03:01:32.524Z,21.89
2022-08-26T03:11:36.886Z,21.59
2022-08-26T03:21:39.580Z,21.50
2022-08-26T03:31:42.197Z,21.37
2022-08-26T03:41:47.628Z,21.28
2022-08-26T03:51:50.445Z,21.26
2022-08-26T04:01:58.003Z,21.13
2022-08-26T04:12:00.739Z,21.24
2022-08-26T04:22:03.070Z,21.27
2022-08-26T04:32:05.266Z,21.43
2022-08-26T04:42:08.205Z,21.56
2022-08-26T04:52:12.219Z,21.78
2022-08-26T05:02:14.983Z,22.10
2022-08-26T05:12:17.660Z,22.40
2022-08-26T05:22:21.596Z,22.87
2022-08-26T05:32:25.430Z,23.31
2022-08-26T05:42:29.515Z,23.64
2022-08-26T05:52:34.810Z,24.12
2022-08-26T06:02:38.904Z,24.42
2022-08-26T06:12:41.523Z,24.86
2022-08-26T06:23:05.222Z,25.19
2022-08-26T06:33:09.393Z,25.97
2022-08-26T06:43:13.338Z,26.55
2022-08-26T06:53:15.757Z,27.12
2022-08-26T07:03:19.127Z,27.70
2022-08-26T07:13:29.960Z,28.06
2022-08-26T07:23:34.703Z,28.74
2022-08-26T07:33:39.183Z,28.96
2022-08-26T07:43:43.895Z,29.68
2022-08-26T07:53:47.927Z,30.08
2022-08-26T08:03:55.541Z,31.08
2022-08-26T08:28:18.527Z,31.08
2022-08-26T08:38:28.923Z,32.08
2022-08-26T08:48:36.453Z,32.50
2022-08-26T08:59:03.383Z,32.87
2022-08-26T09:09:23.494Z,33.81
2022-08-26T09:19:37.236Z,33.89
2022-08-26T09:29:44.956Z,34.73
2022-08-26T09:39:52.812Z,34.60
2022-08-26T09:50:09.641Z,35.28
2022-08-26T10:00:30.636Z,35.85
2022-08-26T10:10:39.996Z,35.58
2022-08-26T10:20:55.612Z,35.89
2022-08-26T10:31:07.380Z,35.43
2022-08-26T10:41:18.197Z,36.88
2022-08-26T10:51:31.483Z,36.94
2022-08-26T11:01:55.935Z,37.22
2022-08-26T11:12:03.885Z,36.76
2022-08-26T11:22:26.901Z,37.46
2022-08-26T11:32:36.973Z,37.49
2022-08-26T11:42:55.019Z,37.91
2022-08-26T11:53:06.057Z,38.53
2022-08-26T12:03:09.887Z,38.11
2022-08-26T12:13:24.991Z,38.00
2022-08-26T12:23:37.449Z,38.34
2022-08-26T12:33:41.747Z,37.81
2022-08-26T12:43:46.266Z,37.83
2022-08-26T12:53:49.686Z,37.52
2022-08-26T13:03:52.652Z,37.79
2022-08-26T13:14:06.929Z,37.88
2022-08-26T13:24:13.897Z,37.46
2022-08-26T13:34:22.020Z,37.30
2022-08-26T13:44:25.653Z,37.33
2022-08-26T13:54:28.628Z,37.03
2022-08-26T14:04:33.624Z,36.77
2022-08-26T14:14:36.564Z,36.46
2022-08-26T14:24:39.615Z,36.60
2022-08-26T14:34:42.756Z,36.19
2022-08-26T14:44:46.978Z,36.04
2022-08-26T14:54:53.761Z,35.54
2022-08-26T15:04:58.692Z,35.09
2022-08-26T15:15:01.680Z,35.12
2022-08-26T15:25:08.088Z,34.57
2022-08-26T15:35:10.682Z,34.23
2022-08-26T15:56:07.787Z,32.97
2022-08-26T16:06:16.984Z,32.39
2022-08-26T16:16:19.959Z,31.93
2022-08-26T16:26:26.358Z,31.35
2022-08-26T16:36:28.968Z,30.34
2022-08-26T16:46:31.792Z,29.41
2022-08-26T16:56:35.998Z,28.70
2022-08-26T17:06:38.744Z,27.95
2022-08-26T17:16:41.558Z,27.03
2022-08-26T17:26:48.464Z,26.67
2022-08-26T17:37:02.635Z,25.92
2022-08-26T17:57:57.575Z,24.94
2022-08-26T18:08:01.169Z,24.56
2022-08-26T18:18:04.835Z,24.33
2022-08-26T18:28:08.292Z,24.10
2022-08-26T18:38:14.126Z,23.80
2022-08-26T18:48:17.735Z,23.59
2022-08-26T18:58:20.613Z,23.27
2022-08-26T19:08:24.597Z,24.01
2022-08-26T19:18:28.200Z,24.07
2022-08-26T19:28:32.894Z,24.13
2022-08-26T19:38:35.654Z,24.67
2022-08-26T19:48:38.795Z,24.72
2022-08-26T19:58:41.972Z,24.77
2022-08-26T20:08:45.249Z,24.79
2022-08-26T20:19:07.685Z,24.87
2022-08-26T20:29:13.434Z,24.74
2022-08-26T20:39:17.362Z,24.68
2022-08-26T20:49:20.042Z,24.77
2022-08-26T20:59:22.734Z,24.73
2022-08-26T21:09:27.492Z,24.68
2022-08-26T21:19:31.604Z,24.62
2022-08-26T21:29:37.034Z,24.60
2022-08-26T21:39:39.543Z,24.57
2022-08-26T21:49:44.339Z,24.45
2022-08-26T21:59:47.030Z,24.19
2022-08-26T22:09:52.698Z,23.95
2022-08-26T22:19:55.528Z,23.82
2022-08-26T22:30:00.829Z,23.70
2022-08-26T22:40:04.655Z,23.57
2022-08-26T22:50:09.141Z,23.47
2022-08-26T23:00:14.423Z,23.19
2022-08-26T23:10:17.539Z,23.13
2022-08-26T23:20:21.962Z,22.97
2022-08-26T23:30:27.725Z,22.74
2022-08-26T23:40:34.125Z,22.68
2022-08-26T23:50:55.336Z,22.54
